Afton, Virginia
Current Conditions -  °F | °C
As of 6:15 AM on Thursday 18 Dec 2014 (Local Time) from KW13 Reporting Station
Clear Clear  
Wind Chill: 23°   Ceiling: Unl
Heat Index: 28°   Visibility: 10mi
Dew Point: 19°   Wind: 5mph
Humidity: 66%   Direction: 260°W
Pressure: 30.11"   Gusts: NA
Location:  38°N, 78.78°W
Report Text: KW13 181115Z AUTO 26004KT 10SM CLR M02/M07 A3011 RMK AO1 T10201075
Loading
Personal Weather Stations






























Interactive Weather Map New forecast layout! Learn more

10-Day Weather Forecast

Advertisements
Track Severe Weather on mobile